Terminal Aerodrome Forecast
Issued by NWS

Home | Current Version | Previous Version | Text Only | Print | Product List | Glossary On
Versions: 1 2 3 4 5 6 7 8 9 10 11 12 13 14 15 16 17
000
FTUS45 KSLC 230529
TAFPVU
TAF
KPVU 230529Z 2306/2406 35010KT P6SM -RA SCT020 BKN040
     FM230900 32011KT P6SM VCSH SCT040 BKN080
     FM231200 31010KT P6SM SCT060 BKN120
     FM240300 VRB04KT P6SM SCT120
      AMD LTD TO CLD VIS AND WIND=

USA.gov is the U.S. government's official web portal to all federal, state and local government web resources and services.